Phillips, WI

7:14 AM CST on January 26, 2015 (GMT -0600)
Lakeland-Lee Memorial | Change Station
CLOSE
Current Station
Airport
Location: Arbor Vitae,
Elevation: 1627 ft
Nearby Weather Stations
Active Advisory: Special Statement

Elev 1627 ft 45.93 °N, 89.73 °W | Updated 19 minutes ago

Overcast
Overcast
17 °F
Feels Like 5 °F
N
9
Wind Variable Wind from South

Today
High -- | Low -- °F
--% Chance of Precip.
Yesterday
High -- | Low -- °F
Precip. -- in
7:29 AM 4:58 PM
Waxing Crescent, 43% visible
Pressure 29.76 in
Visibility 10.0 miles
Clouds Overcast 1300 ft
Windchill 5 °F
Dew Point 8 °F
Humidity 69%
Rainfall 0.00 in
Snow Depth Not available.
UV 0 out of 12
Pollen .10 out of 12
Air Quality Not available.
Flu Activity Not available.
METAR KARV 261255Z AUTO 17008KT 10SM OVC013 M08/M13 A2976 RMK AO2 T10851132

More Conditions Fewer Conditions

Pressure 29.76 in
Visibility 10.0 miles
Clouds Overcast 1300 ft
Windchill 5 °F
Dew Point 8 °F
Humidity 69%
Rainfall 0.00 in
Snow Depth Not available.
UV 0 out of 12
Pollen .10 out of 12
Air Quality Not available.
Flu Activity Not available.
METAR KARV 261255Z AUTO 17008KT 10SM OVC013 M08/M13 A2976 RMK AO2 T10851132

More Conditions Fewer Conditions

10-Day Weather Forecast

Almanac

Astronomy

Jan. 26, 2015 Rise Set
Actual Time
Civil Twilight
Nautical Twilight
Astronomical Twilight
Moon
Length of Visible Light
Length of Day
Tomorrow will be .
, % of the Moon is Illuminated

Today's Extremes

State Highs State Lows

Community

WunderPhotos

Upload Photos

1,790,192 photos uploaded!

WunderBlogs® & News

Nearby

Air Quality

  Air Quality AQ Index Pollutant
Not available.

Snow Depth

Station Depth Elevation

Earthquake Activity

City Distance Mag. Time & Date
Minimum magnitude displayed is 2.5.

Coastal Water Temperatures

Place Temperature

Nearby Weather Stations